Niagara-On-The-Lake, Canada
Current Conditions -  °F | °C
As of 9:24 AM on Thursday 27 Nov 2014 (Local Time) from CYSN Reporting Station
Snow Showers Snow Showers  
Wind Chill: 23°   Ceiling: 1400
Heat Index: 30°   Visibility: 2.5mi
Dew Point: 25°   Wind: 7mph
Humidity: 80%   Direction: 260°W
Pressure: 30.08"   Gusts: NA
Location:  43.25°N, 79.07°W
Report Text: CYSN 271424Z 26006KT 2 1/2SM -SHSN BKN014 OVC029 M01/M04 A3008 RMK SC5SC3 SLP191
Loading
Personal Weather Stations






























Interactive Weather Map New forecast layout! Learn more

10-Day Weather Forecast

Advertisements
Track Severe Weather on mobile